Time;durP1;ratioP1;P1;durP2;ratioP2;P2;SDS_P1;SDS_P2;PMS_P1;PMS_P2;Temp;Humidity;BMP_temperature;BMP_pressure;BME280_temperature;BME280_humidity;BME280_pressure;Samples;Min_cycle;Max_cycle;Signal;HPM_P1;HPM_P2
2022/08/02 00:01:12;;;;;;;6.00;5.60;;;18.60;91.10;;;17.69;79.73;98057.06;5064155;28;20975;-78
2022/08/02 00:03:40;;;;;;;7.23;5.60;;;18.50;91.50;;;17.29;80.04;97995.56;5056001;28;21039;-76
2022/08/02 00:06:07;;;;;;;5.60;5.20;;;18.50;91.70;;;17.49;80.51;98044.03;5075160;28;20460;-76
2022/08/02 00:08:34;;;;;;;5.40;4.90;;;18.40;91.80;;;17.53;80.71;98063.47;5078196;28;20436;-76
2022/08/02 00:11:01;;;;;;;6.30;5.80;;;18.40;92.10;;;17.63;80.37;98049.06;5070351;28;20483;-76
2022/08/02 00:13:29;;;;;;;6.90;5.80;;;18.40;92.10;;;17.62;80.33;98050.16;5056858;28;20456;-77
2022/08/02 00:15:56;;;;;;;6.07;5.40;;;18.40;92.20;;;17.50;80.59;98042.97;5055616;28;20520;-77
2022/08/02 00:18:25;;;;;;;5.80;5.30;;;18.40;92.20;;;17.56;80.57;98052.88;5062267;28;20488;-77
2022/08/02 00:20:52;;;;;;;6.10;5.50;;;18.40;92.30;;;17.52;80.41;98062.66;5095698;28;20523;-76
2022/08/02 00:23:20;;;;;;;6.67;5.90;;;18.30;92.00;;;17.47;80.81;98061.81;5063004;28;21013;-78
2022/08/02 00:25:48;;;;;;;6.37;5.77;;;18.30;92.20;;;17.45;80.90;98056.59;5067737;28;20472;-78
2022/08/02 00:28:15;;;;;;;6.30;5.70;;;18.30;92.40;;;17.22;81.61;98050.38;5063486;28;20917;-80
2022/08/02 00:30:42;;;;;;;5.33;4.93;;;18.10;92.80;;;17.11;82.39;98032.25;5073037;28;20453;-78
2022/08/02 00:33:09;;;;;;;6.57;5.90;;;18.10;93.40;;;17.36;81.90;98053.50;5072523;28;20444;-78
2022/08/02 00:35:38;;;;;;;6.67;5.80;;;18.10;93.30;;;17.67;80.64;98063.88;5079330;28;20452;-77
2022/08/02 00:38:05;;;;;;;6.43;5.83;;;18.30;92.70;;;17.65;80.67;98055.94;5075351;28;20452;-77
2022/08/02 00:40:33;;;;;;;5.63;5.13;;;18.40;92.70;;;17.61;80.31;98048.53;5089336;28;20480;-79
2022/08/02 00:43:05;;;;;;;7.30;5.40;;;18.40;92.50;;;17.52;80.95;98065.41;5073303;28;20525;-77
2022/08/02 00:45:33;;;;;;;7.10;6.40;;;18.30;92.70;;;17.25;81.08;98038.94;5070036;28;20477;-76
2022/08/02 00:48:01;;;;;;;6.57;5.97;;;18.30;92.70;;;17.23;82.29;98071.13;5063146;28;20474;-77
2022/08/02 00:50:29;;;;;;;6.13;5.73;;;18.10;93.10;;;17.00;82.99;98044.97;5077963;28;20453;-78
2022/08/02 00:52:58;;;;;;;5.50;5.00;;;17.90;93.80;;;17.34;81.97;98060.28;5049160;28;20639;-77
2022/08/02 00:55:26;;;;;;;6.70;6.07;;;18.10;93.70;;;17.28;81.71;98045.78;5060212;28;20470;-77
2022/08/02 00:57:53;;;;;;;6.30;5.80;;;18.10;93.20;;;16.88;82.29;98001.41;5057705;28;20551;-77
2022/08/02 01:00:22;;;;;;;6.53;6.00;;;18.10;93.10;;;17.25;82.51;98049.03;5058617;28;20476;-76
2022/08/02 01:02:49;;;;;;;5.60;5.10;;;18.00;93.80;;;17.02;81.91;98009.22;5059066;28;20479;-78
2022/08/02 01:05:16;;;;;;;5.97;5.57;;;18.10;93.30;;;17.14;82.83;98056.28;5072631;28;20448;-78
2022/08/02 01:07:44;;;;;;;5.10;4.60;;;18.00;93.60;;;16.98;83.62;98064.28;5056067;28;20915;-79
2022/08/02 01:10:12;;;;;;;6.80;6.17;;;17.90;94.10;;;16.98;84.07;98063.44;5057312;28;22094;-78
2022/08/02 01:12:40;;;;;;;9.40;6.10;;;17.80;94.60;;;17.08;83.63;98057.34;5055305;28;20462;-78
2022/08/02 01:15:10;;;;;;;5.40;5.00;;;17.90;94.60;;;17.02;84.00;98063.81;5054635;28;20504;-78
2022/08/02 01:17:47;;;;;;;5.80;5.30;;;17.80;94.70;;;16.92;84.45;98057.16;5068239;28;20445;-79
2022/08/02 01:20:49;;;;;;;10.07;5.80;;;17.80;95.00;;;16.91;84.81;98058.22;5061777;28;20487;-78
2022/08/02 01:23:36;;;;;;;6.47;5.97;;;17.70;95.30;;;16.89;85.04;98065.81;5073312;28;20478;-80
2022/08/02 01:26:23;;;;;;;5.90;5.50;;;17.70;95.20;;;16.75;85.28;98061.81;5065050;28;20455;-79
2022/08/02 01:28:58;;;;;;;5.97;5.53;;;17.70;95.10;;;16.76;85.72;98060.78;5060122;28;20502;-80
2022/08/02 01:31:32;;;;;;;5.93;5.43;;;17.60;95.70;;;16.80;85.26;98051.00;5062929;28;21097;-79
2022/08/02 01:34:09;;;;;;;6.97;6.27;;;17.70;95.60;;;16.80;85.30;98051.00;5069729;28;20841;-80
2022/08/02 01:36:40;;;;;;;6.33;5.73;;;17.70;95.60;;;16.75;85.10;98054.47;5063813;28;20466;-80
2022/08/02 01:39:13;;;;;;;6.60;6.00;;;17.70;95.30;;;16.77;85.57;98059.69;5061460;28;20461;-80
2022/08/02 01:41:42;;;;;;;6.83;6.30;;;17.60;95.50;;;16.62;86.46;98065.78;5067722;28;20491;-77
2022/08/02 01:44:13;;;;;;;7.00;6.40;;;17.60;95.60;;;16.55;86.66;98060.50;5084966;28;21082;-78
2022/08/02 01:46:42;;;;;;;9.33;6.07;;;17.50;96.30;;;16.52;86.54;98058.28;5072715;28;20459;-77
2022/08/02 01:49:22;;;;;;;6.30;5.70;;;17.40;96.40;;;16.53;86.94;98071.69;5060007;28;20455;-77
2022/08/02 01:54:41;;;;;;;7.10;6.60;;;17.30;97.00;;;16.37;87.82;98086.16;5057622;28;20551;-80
2022/08/02 01:57:12;;;;;;;7.00;6.43;;;17.30;97.30;;;16.46;87.47;98094.78;5091423;28;20458;-78
2022/08/02 01:59:44;;;;;;;6.30;5.80;;;17.30;97.80;;;16.37;87.40;98081.56;5059129;28;20487;-78
2022/08/02 02:02:16;;;;;;;6.37;5.80;;;17.30;97.00;;;16.28;87.48;98073.00;5049604;28;20557;-77
2022/08/02 02:04:46;;;;;;;6.33;5.83;;;17.20;98.00;;;16.13;88.09;98065.41;5048454;28;20464;-78
2022/08/02 02:07:15;;;;;;;10.40;5.87;;;17.10;97.20;;;15.97;88.86;98072.53;5087410;28;20456;-79
2022/08/02 02:09:46;;;;;;;6.33;5.73;;;17.00;98.10;;;16.06;88.90;98081.13;5060387;28;20474;-77
2022/08/02 02:12:14;;;;;;;7.03;6.43;;;16.90;99.30;;;15.94;89.38;98080.38;5054300;28;20460;-77
2022/08/02 02:14:44;;;;;;;7.70;6.90;;;16.90;99.10;;;15.22;90.48;97995.63;5069149;28;20468;-78
2022/08/02 02:17:14;;;;;;;6.73;6.17;;;16.70;99.90;;;15.72;90.50;98086.56;5053518;28;20485;-79
2022/08/02 02:19:42;;;;;;;6.70;6.10;;;16.60;99.90;;;15.76;90.57;98085.00;5055954;28;20891;-78
2022/08/02 02:22:10;;;;;;;6.80;6.30;;;16.60;99.90;;;15.88;90.49;98089.53;5071917;28;20463;-78
2022/08/02 02:24:37;;;;;;;6.70;6.10;;;16.70;99.90;;;15.77;90.64;98086.63;5054832;28;20565;-78
2022/08/02 02:27:09;;;;;;;6.43;5.90;;;16.70;99.90;;;15.89;90.55;98085.72;5054503;28;20452;-78
2022/08/02 02:29:39;;;;;;;7.70;6.90;;;16.70;99.90;;;15.94;89.95;98088.56;5057796;28;20458;-77
2022/08/02 02:32:08;;;;;;;5.87;5.47;;;16.70;99.90;;;15.91;90.15;98086.34;5053032;28;20502;-78
2022/08/02 02:34:39;;;;;;;7.17;6.53;;;16.80;99.90;;;15.78;90.85;98093.72;5059646;28;20471;-77
2022/08/02 02:37:14;;;;;;;7.00;6.40;;;16.70;99.90;;;15.47;90.94;98046.94;5062734;28;20463;-76
2022/08/02 02:39:44;;;;;;;7.10;6.53;;;16.70;99.90;;;15.57;91.32;98068.06;5080623;28;20504;-77
2022/08/02 02:42:15;;;;;;;7.90;7.30;;;16.60;99.90;;;15.55;92.18;98087.38;5069084;28;20451;-77
2022/08/02 02:44:45;;;;;;;6.57;6.07;;;16.50;99.90;;;15.64;91.84;98073.34;5068277;28;20554;-77
2022/08/02 02:47:15;;;;;;;7.03;6.43;;;16.40;99.90;;;15.63;91.70;98082.59;5070501;28;20480;-77
2022/08/02 02:49:46;;;;;;;7.53;6.27;;;16.50;99.90;;;15.04;92.07;98030.16;5067239;28;20547;-77
2022/08/02 02:52:15;;;;;;;7.57;6.97;;;16.40;99.90;;;15.36;93.23;98094.94;5070208;28;20452;-76
2022/08/02 02:54:45;;;;;;;7.63;6.93;;;16.30;99.90;;;15.27;93.97;98090.97;5069411;28;20497;-77
2022/08/02 02:57:13;;;;;;;7.10;6.43;;;16.20;99.90;;;15.22;94.29;98088.16;5102442;28;20473;-78
2022/08/02 02:59:41;;;;;;;7.73;7.03;;;16.20;99.90;;;15.37;93.53;98084.88;5062555;28;20850;-76
2022/08/02 03:02:10;;;;;;;7.60;7.00;;;16.20;99.90;;;15.38;93.22;98078.34;5070578;28;20447;-76
2022/08/02 03:04:42;;;;;;;7.87;7.27;;;16.30;99.90;;;15.41;93.12;98069.72;5071000;28;20487;-78
2022/08/02 03:07:10;;;;;;;7.47;6.87;;;16.30;99.90;;;15.27;93.84;98080.06;5060555;28;20553;-79
2022/08/02 03:09:37;;;;;;;6.93;6.40;;;16.20;99.90;;;15.16;94.56;98084.50;5059709;28;20453;-79
2022/08/02 03:12:07;;;;;;;7.47;6.87;;;16.10;99.90;;;15.22;93.90;98061.75;5060207;28;20455;-78
2022/08/02 03:14:35;;;;;;;7.83;7.03;;;16.10;99.90;;;15.04;93.75;98037.47;5060273;28;20540;-78
2022/08/02 03:17:02;;;;;;;8.13;7.17;;;16.20;99.90;;;15.30;93.49;98064.09;5067673;28;20455;-78
2022/08/02 03:19:30;;;;;;;7.97;7.10;;;16.30;99.90;;;15.50;92.46;98084.56;5064624;28;20504;-78
2022/08/02 03:21:58;;;;;;;7.97;7.27;;;16.40;99.90;;;15.44;92.50;98093.72;5060083;28;20459;-76
2022/08/02 03:24:26;;;;;;;9.10;8.20;;;16.40;99.90;;;15.40;92.48;98085.22;5060423;28;20451;-77
2022/08/02 03:26:53;;;;;;;8.20;7.40;;;16.40;99.90;;;15.53;91.75;98089.50;5058625;28;20451;-76
2022/08/02 03:29:20;;;;;;;9.23;7.10;;;16.40;99.90;;;15.60;91.36;98088.53;5059668;28;21669;-76
2022/08/02 03:31:48;;;;;;;8.17;7.00;;;16.50;99.90;;;15.54;90.38;98091.19;5063608;28;21003;-76
2022/08/02 03:34:15;;;;;;;8.73;7.53;;;16.50;99.70;;;15.43;91.12;98083.91;5065537;28;20450;-77
2022/08/02 03:36:43;;;;;;;8.03;6.93;;;16.40;99.90;;;15.68;90.51;98088.09;5090571;28;20458;-75
2022/08/02 03:39:12;;;;;;;7.13;6.47;;;16.50;99.90;;;15.93;88.82;98090.47;5062281;28;20534;-76
2022/08/02 03:41:41;;;;;;;9.30;7.40;;;16.70;99.40;;;15.73;88.24;98089.03;5062961;28;20818;-77
2022/08/02 03:44:11;;;;;;;7.90;6.90;;;16.70;97.70;;;15.66;89.35;98085.66;5070069;28;20455;-76
2022/08/02 03:46:39;;;;;;;8.20;6.20;;;16.70;98.10;;;15.60;89.68;98088.53;5068955;28;20451;-77
2022/08/02 03:49:08;;;;;;;5.90;5.40;;;16.60;98.70;;;15.46;90.19;98099.75;5066551;28;20470;-77
2022/08/02 03:51:36;;;;;;;7.40;6.67;;;16.40;98.80;;;15.38;90.64;98089.22;5064008;28;20461;-77
2022/08/02 03:54:04;;;;;;;6.63;6.10;;;16.40;99.60;;;15.54;90.25;98082.19;5064093;28;20460;-76
2022/08/02 03:56:32;;;;;;;6.60;5.63;;;16.40;99.90;;;15.89;88.42;98093.91;5066160;28;20554;-76
2022/08/02 03:59:11;;;;;;;6.20;5.70;;;16.70;98.60;;;16.34;85.28;98086.69;5061822;28;20458;-77
2022/08/02 04:01:39;;;;;;;5.57;5.07;;;17.00;96.20;;;16.59;83.67;98088.91;5064096;28;21048;-75
2022/08/02 04:04:07;;;;;;;6.17;5.67;;;17.30;94.60;;;16.44;83.98;98092.28;5061599;28;20452;-77
2022/08/02 04:06:35;;;;;;;6.37;5.87;;;17.30;93.90;;;16.17;84.68;98103.91;5090397;28;20867;-76
2022/08/02 04:09:02;;;;;;;7.57;6.47;;;17.10;94.10;;;15.97;86.34;98101.69;5060610;28;20506;-77
2022/08/02 04:11:31;;;;;;;8.17;6.43;;;16.90;95.00;;;15.54;86.82;98063.97;5059562;28;20522;-76
2022/08/02 04:14:00;;;;;;;6.40;5.80;;;16.80;95.50;;;15.64;88.27;98122.38;5062304;28;20464;-77
2022/08/02 04:16:40;;;;;;;8.43;7.77;;;16.60;96.60;;;15.41;88.23;98091.50;5062997;28;20468;-76
2022/08/02 04:19:10;;;;;;;7.37;6.67;;;16.50;97.00;;;15.49;88.75;98128.38;5060258;28;20461;-77
2022/08/02 04:21:41;;;;;;;5.63;5.23;;;16.50;97.40;;;15.61;88.35;98131.84;5087909;28;20987;-81
2022/08/02 04:24:11;;;;;;;7.63;6.50;;;16.50;97.80;;;15.62;88.31;98127.25;5059173;28;20462;-80
2022/08/02 04:26:42;;;;;;;6.93;6.23;;;16.60;97.20;;;15.73;87.53;98131.78;5056983;28;20579;-78
2022/08/02 04:29:11;;;;;;;6.87;6.13;;;16.70;96.30;;;15.83;87.53;98137.38;5061379;28;20460;-79
2022/08/02 04:31:40;;;;;;;6.90;6.10;;;16.70;96.40;;;16.37;84.65;98133.34;5054892;28;20457;-77
2022/08/02 04:34:07;;;;;;;7.40;5.93;;;17.10;94.80;;;16.69;81.95;98138.16;5056620;28;20492;-79
2022/08/02 04:36:36;;;;;;;8.10;5.97;;;17.50;92.30;;;16.91;81.00;98134.63;5053090;28;21003;-77
2022/08/02 04:39:04;;;;;;;7.57;6.10;;;17.80;92.00;;;16.90;79.94;98122.03;5058867;28;20550;-82
2022/08/02 04:41:42;;;;;;;7.40;6.30;;;17.90;91.50;;;17.23;78.89;98141.28;5065830;28;20484;-82
2022/08/02 04:44:10;;;;;;;8.17;5.90;;;18.10;90.70;;;17.05;79.44;98145.16;5065172;28;21036;-80
2022/08/02 04:46:38;;;;;;;9.77;6.40;;;18.00;90.70;;;16.92;79.73;98141.72;5078992;28;20733;-79
2022/08/02 04:49:06;;;;;;;8.17;6.53;;;17.90;90.80;;;16.74;80.34;98151.03;5054152;28;20959;-82
2022/08/02 04:51:35;;;;;;;8.33;7.10;;;17.70;91.10;;;16.69;80.95;98148.25;5053571;28;20834;-82
2022/08/02 04:54:04;;;;;;;6.63;6.13;;;17.70;91.50;;;17.18;78.68;98155.69;5050787;28;20548;-83
2022/08/02 04:56:31;;;;;;;7.27;6.40;;;17.90;90.90;;;17.69;76.53;98149.13;5053407;28;20465;-82
2022/08/02 04:59:01;;;;;;;7.30;6.27;;;18.30;90.00;;;17.39;77.06;98142.28;5076673;28;20845;-80
2022/08/02 05:01:28;;;;;;;7.90;7.10;;;18.40;89.10;;;17.54;77.26;98139.72;5100088;27;20491;-80
2022/08/02 05:03:55;;;;;;;9.30;5.90;;;18.40;89.00;;;17.83;75.72;98138.59;5060924;28;20460;-80
2022/08/02 05:06:24;;;;;;;6.17;5.67;;;18.70;87.40;;;19.46;68.47;98124.44;5055266;28;20443;-87
2022/08/02 05:08:51;;;;;;;7.50;6.43;;;20.10;83.90;;;19.76;67.51;98133.78;5072525;28;20456;-85
2022/08/02 05:11:19;;;;;;;6.70;6.17;;;20.70;82.00;;;20.39;64.84;98129.94;5060759;28;21091;-73
2022/08/02 05:13:46;;;;;;;6.90;6.20;;;21.40;80.30;;;20.75;63.49;98140.00;5055764;28;20451;-81
2022/08/02 05:16:17;;;;;;;12.10;6.33;;;21.90;78.90;;;21.66;60.27;98124.50;5052763;28;20492;-72
2022/08/02 05:18:44;;;;;;;7.30;6.60;;;22.40;77.60;;;22.46;57.74;98141.72;5055048;28;20473;-72
2022/08/02 05:21:12;;;;;;;7.23;6.53;;;23.20;75.70;;;22.32;57.23;98138.81;5059585;28;20471;-72
2022/08/02 05:23:39;;;;;;;6.00;5.50;;;23.70;73.90;;;22.39;56.89;98132.97;5050834;28;20479;-73
2022/08/02 05:26:08;;;;;;;7.70;7.00;;;23.70;73.00;;;21.53;59.30;98142.41;5056193;28;20460;-72
2022/08/02 05:28:35;;;;;;;6.90;6.30;;;23.30;73.00;;;21.43;59.64;98143.31;5055978;28;20464;-71
2022/08/02 05:31:03;;;;;;;7.80;7.00;;;22.80;73.60;;;21.09;60.20;98105.59;5060757;28;20456;-85
2022/08/02 05:33:31;;;;;;;8.07;6.60;;;22.70;73.70;;;21.95;58.13;98140.25;5056395;28;20456;-72
2022/08/02 05:35:59;;;;;;;7.43;6.67;;;23.00;73.60;;;20.90;60.70;98133.69;5056063;28;21288;-72
2022/08/02 05:38:29;;;;;;;6.07;5.63;;;22.40;74.00;;;19.99;64.56;98148.09;5062377;28;20456;-70
2022/08/02 05:40:56;;;;;;;6.87;6.20;;;21.50;75.40;;;19.71;65.71;98143.91;5064046;28;20541;-71
2022/08/02 05:43:24;;;;;;;7.83;7.03;;;21.00;76.80;;;20.32;64.21;98134.91;5094418;27;20921;-71
2022/08/02 05:45:53;;;;;;;8.10;7.30;;;21.30;76.80;;;21.30;61.15;98132.94;5059556;28;20532;-71
2022/08/02 05:48:21;;;;;;;6.70;6.10;;;22.20;75.70;;;22.80;56.37;98141.94;5060566;28;20453;-70
2022/08/02 05:50:55;;;;;;;8.00;6.70;;;23.40;73.90;;;22.50;56.40;98151.06;5065083;28;21050;-71
2022/08/02 05:53:34;;;;;;;7.80;7.07;;;23.60;72.40;;;21.93;58.66;98145.22;5059934;28;20975;-71
2022/08/02 05:56:17;;;;;;;10.77;7.47;;;23.00;73.40;;;21.05;61.53;98149.25;5091021;28;20517;-71
2022/08/02 05:58:50;;;;;;;8.83;7.47;;;22.30;74.40;;;20.85;62.27;98147.44;5092603;28;20455;-71
2022/08/02 06:01:33;;;;;;;7.57;6.90;;;21.90;75.30;;;20.65;62.95;98140.06;5058611;28;22311;-71
2022/08/02 06:04:02;;;;;;;8.50;7.50;;;21.70;75.80;;;20.72;63.16;98148.00;5051120;28;20445;-71
2022/08/02 06:06:33;;;;;;;8.00;7.30;;;21.70;76.20;;;20.25;64.42;98150.84;5063138;28;21182;-72
2022/08/02 06:09:09;;;;;;;8.53;7.90;;;21.50;76.50;;;20.11;65.53;98145.06;5059720;28;20518;-72
2022/08/02 06:11:39;;;;;;;9.50;8.57;;;21.20;77.20;;;20.77;63.19;98143.28;5054573;28;20470;-71
2022/08/02 06:14:08;;;;;;;11.33;7.90;;;21.50;76.90;;;21.69;60.36;98145.13;5059075;28;20535;-70
2022/08/02 06:16:36;;;;;;;9.73;8.07;;;22.50;75.60;;;21.65;60.15;98151.16;5056653;28;20563;-70
2022/08/02 06:19:04;;;;;;;8.63;7.93;;;22.60;75.10;;;20.57;63.33;98155.19;5061864;28;20507;-70
2022/08/02 06:21:34;;;;;;;9.60;8.70;;;22.00;75.70;;;20.82;62.30;98120.53;5061356;28;20584;-70
2022/08/02 06:24:03;;;;;;;8.60;7.80;;;21.90;76.20;;;20.88;61.96;98110.34;5088381;28;20468;-70
2022/08/02 06:26:33;;;;;;;8.73;7.90;;;22.10;76.20;;;20.65;63.33;98165.56;5063481;28;20528;-71
2022/08/02 06:29:02;;;;;;;9.17;8.37;;;21.70;76.40;;;20.84;63.22;98161.44;5059759;28;20471;-70
2022/08/02 06:31:29;;;;;;;8.93;8.03;;;21.70;76.60;;;20.49;64.26;98150.25;5058120;28;20457;-71
2022/08/02 06:33:57;;;;;;;9.17;8.30;;;21.60;76.90;;;20.71;63.85;98149.09;5062614;28;20575;-71
2022/08/02 06:36:34;;;;;;;8.50;7.70;;;21.60;77.00;;;20.69;63.64;98151.28;5058912;28;20985;-71
2022/08/02 06:39:06;;;;;;;9.40;8.67;;;21.60;77.10;;;20.52;64.51;98155.16;5056792;28;20963;-70
2022/08/02 06:41:41;;;;;;;9.27;7.70;;;21.50;77.40;;;20.59;64.55;98165.84;5061735;28;20541;-71
2022/08/02 06:44:09;;;;;;;8.90;8.00;;;21.50;77.60;;;21.01;63.12;98161.13;5059669;28;20466;-71
2022/08/02 06:46:37;;;;;;;11.20;8.37;;;21.70;77.40;;;21.24;61.80;98159.66;5061645;28;20467;-70
2022/08/02 06:49:04;;;;;;;9.70;8.70;;;21.90;76.80;;;21.37;61.45;98170.00;5060400;28;20468;-70
2022/08/02 06:51:33;;;;;;;10.67;8.90;;;22.10;76.40;;;21.41;61.51;98169.44;5060452;28;20509;-69
2022/08/02 06:54:00;;;;;;;10.50;9.53;;;22.20;76.30;;;21.34;61.46;98161.50;5057821;28;20537;-72
2022/08/02 06:56:27;;;;;;;9.70;8.90;;;22.30;76.10;;;21.32;62.04;98171.97;5059960;28;20487;-71
2022/08/02 06:58:55;;;;;;;10.00;7.53;;;22.30;76.30;;;21.16;62.13;98163.81;5070258;28;21053;-71
2022/08/02 07:01:22;;;;;;;10.13;8.53;;;22.20;76.20;;;20.65;63.30;98140.88;5067571;28;20489;-71
2022/08/02 07:03:49;;;;;;;11.57;8.40;;;21.90;76.40;;;20.95;63.50;98172.09;5062875;28;20808;-71
2022/08/02 07:06:17;;;;;;;9.80;8.93;;;21.80;77.00;;;21.03;63.00;98172.63;5075544;28;20474;-72
2022/08/02 07:08:45;;;;;;;9.60;8.60;;;21.90;76.80;;;21.09;62.77;98174.25;5095661;28;20509;-71
2022/08/02 07:11:13;;;;;;;9.87;8.97;;;22.00;76.80;;;20.97;63.12;98166.34;5066652;28;20460;-71
2022/08/02 07:13:40;;;;;;;9.97;9.00;;;21.90;76.80;;;21.13;62.53;98169.03;5064512;28;20525;-71
2022/08/02 07:16:08;;;;;;;11.23;8.20;;;22.00;76.70;;;21.35;61.83;98143.91;5065486;28;20468;-71
2022/08/02 07:18:38;;;;;;;24.60;9.60;;;22.10;76.70;;;21.50;61.49;98152.06;5065476;28;21390;-70
2022/08/02 07:21:06;;;;;;;10.20;8.60;;;22.30;76.40;;;21.38;62.02;98151.59;5063468;28;20472;-70
2022/08/02 07:23:33;;;;;;;9.93;8.70;;;22.30;76.40;;;21.45;61.97;98152.09;5079129;28;20460;-70
2022/08/02 07:26:02;;;;;;;10.10;9.20;;;22.20;76.40;;;21.21;62.45;98161.00;5060133;28;20944;-72
2022/08/02 07:28:29;;;;;;;11.40;9.77;;;22.20;76.40;;;21.45;61.67;98154.81;5067243;28;20453;-71
2022/08/02 07:30:56;;;;;;;9.53;8.63;;;22.20;76.30;;;21.62;61.02;98146.22;5060193;28;20528;-72
2022/08/02 07:33:24;;;;;;;9.90;9.00;;;22.20;76.30;;;21.83;60.44;98159.03;5067312;28;21010;-72
2022/08/02 07:35:51;;;;;;;9.80;8.90;;;22.50;75.90;;;22.03;59.77;98147.06;5061363;28;20531;-72
2022/08/02 07:38:21;;;;;;;9.73;8.87;;;22.70;75.60;;;21.94;59.79;98144.91;5063151;28;20816;-71
2022/08/02 07:40:48;;;;;;;11.17;8.67;;;22.80;75.20;;;21.95;60.09;98143.00;5070015;28;20460;-72
2022/08/02 07:43:17;;;;;;;9.57;8.60;;;22.80;75.30;;;22.22;59.10;98141.66;5048738;28;20481;-71
2022/08/02 07:45:44;;;;;;;9.70;8.50;;;22.90;75.00;;;22.31;58.76;98142.66;5064095;28;20461;-71
2022/08/02 07:48:12;;;;;;;10.00;9.20;;;23.10;74.90;;;22.35;58.61;98151.97;5066834;28;20499;-71
2022/08/02 07:50:39;;;;;;;9.83;8.43;;;23.20;74.60;;;22.14;59.56;98145.03;5068930;28;20461;-72
2022/08/02 07:53:06;;;;;;;9.00;8.27;;;23.00;74.80;;;22.19;59.32;98145.81;5066324;28;20451;-71
2022/08/02 07:55:34;;;;;;;8.90;8.10;;;23.00;74.90;;;22.47;58.43;98150.78;5064720;28;20489;-71
2022/08/02 07:58:01;;;;;;;10.13;9.23;;;23.20;74.50;;;22.15;58.78;98110.91;5056284;28;20460;-71
2022/08/02 08:00:30;;;;;;;10.80;9.37;;;23.20;74.50;;;22.38;58.50;98147.03;5064999;28;20458;-73
2022/08/02 08:02:58;;;;;;;10.80;8.90;;;23.20;74.30;;;22.55;58.36;98136.41;5065178;28;20480;-72
2022/08/02 08:05:25;;;;;;;8.63;7.70;;;23.30;74.40;;;22.66;57.18;98147.31;5059821;28;20547;-72
2022/08/02 08:07:52;;;;;;;9.13;8.20;;;23.40;73.60;;;22.68;57.00;98139.59;5063341;28;20468;-71
2022/08/02 08:10:19;;;;;;;8.13;7.37;;;23.50;73.70;;;22.76;57.10;98145.28;5065351;28;20470;-70
2022/08/02 08:12:47;;;;;;;8.17;7.53;;;23.50;73.30;;;22.91;56.63;98149.78;5059996;28;20452;-70
2022/08/02 08:15:14;;;;;;;8.97;7.80;;;23.60;73.10;;;23.13;55.65;98145.66;5076226;28;21041;-70
2022/08/02 08:17:43;;;;;;;9.17;8.30;;;23.80;72.70;;;23.25;54.96;98142.47;5060141;28;20469;-71
2022/08/02 08:20:11;;;;;;;8.20;7.50;;;23.90;72.50;;;23.48;54.96;98148.25;5060706;28;20478;-71
2022/08/02 08:22:38;;;;;;;8.73;7.20;;;24.10;72.10;;;23.80;54.00;98151.38;5075653;28;20468;-77
2022/08/02 08:25:06;;;;;;;6.80;6.30;;;24.40;71.70;;;23.97;53.09;98157.16;5064948;28;20461;-72
2022/08/02 08:27:34;;;;;;;7.33;6.63;;;24.50;71.10;;;23.63;53.40;98153.53;5063424;28;20505;-71
2022/08/02 08:30:01;;;;;;;7.23;6.63;;;24.50;70.60;;;23.68;53.43;98154.59;5057335;28;20447;-70
2022/08/02 08:32:29;;;;;;;7.30;6.70;;;24.40;70.30;;;23.89;53.02;98166.94;5065137;28;20550;-71
2022/08/02 08:34:58;;;;;;;7.53;6.73;;;24.60;70.10;;;24.11;52.89;98167.47;5065752;28;20494;-71
2022/08/02 08:37:27;;;;;;;6.40;5.80;;;24.80;70.10;;;24.07;52.53;98167.25;5062805;28;20515;-71
2022/08/02 08:39:54;;;;;;;8.90;6.27;;;24.80;69.70;;;24.22;52.46;98157.91;5095012;28;20884;-71
2022/08/02 08:42:21;;;;;;;9.60;8.70;;;24.90;69.90;;;23.73;54.48;98130.53;5062476;28;20481;-70
2022/08/02 08:44:50;;;;;;;9.30;8.27;;;24.90;71.10;;;24.26;53.75;98163.59;5063509;28;20490;-70
2022/08/02 08:47:19;;;;;;;9.33;8.53;;;24.90;71.00;;;24.29;53.86;98163.84;5056538;28;20969;-71
2022/08/02 08:49:52;;;;;;;9.70;8.80;;;25.00;71.00;;;24.30;54.14;98148.91;5057547;28;20441;-71
2022/08/02 08:52:25;;;;;;;8.90;8.00;;;25.10;71.10;;;24.25;53.80;98161.97;5059484;28;20305;-70
2022/08/02 08:54:54;;;;;;;9.37;8.40;;;25.00;70.90;;;24.37;53.07;98151.28;5055378;28;21041;-72
2022/08/02 08:57:21;;;;;;;10.23;7.80;;;25.10;70.40;;;24.22;54.34;98157.91;5062744;28;20453;-72
2022/08/02 08:59:49;;;;;;;8.40;7.60;;;25.00;70.70;;;24.93;52.56;98148.59;5060140;28;20835;-72
2022/08/02 09:02:16;;;;;;;7.63;7.00;;;25.30;70.50;;;25.28;50.85;98157.25;5064141;28;20614;-72
2022/08/02 09:04:44;;;;;;;7.63;6.77;;;25.70;69.60;;;25.70;49.06;98157.19;5058879;28;20466;-72
2022/08/02 09:07:11;;;;;;;6.40;5.90;;;26.20;67.70;;;25.87;48.86;98158.47;5091268;28;20450;-71
2022/08/02 09:09:40;;;;;;;6.63;6.03;;;26.40;67.10;;;25.89;48.06;98123.81;5063910;28;20466;-71
2022/08/02 09:12:15;;;;;;;6.60;6.10;;;26.70;66.70;;;26.26;47.69;98158.94;5057065;28;20526;-72
2022/08/02 09:14:42;;;;;;;8.60;6.70;;;26.90;65.90;;;25.94;48.58;98163.59;5052182;28;20564;-72
2022/08/02 09:17:12;;;;;;;9.63;6.67;;;26.70;66.40;;;26.17;47.95;98172.69;5086983;28;20452;-74
2022/08/02 09:19:40;;;;;;;8.60;6.90;;;26.70;65.60;;;25.84;47.29;98164.63;5073726;28;20488;-72
2022/08/02 09:22:10;;;;;;;7.37;6.53;;;26.60;64.40;;;25.67;48.07;98171.66;5063099;28;20472;-73
2022/08/02 09:24:46;;;;;;;7.10;6.00;;;26.40;64.80;;;25.46;48.62;98161.03;5092283;27;20863;-73
2022/08/02 09:27:17;;;;;;;6.60;5.77;;;26.30;65.30;;;25.03;49.50;98156.69;5057042;28;20955;-72
2022/08/02 09:29:47;;;;;;;6.60;6.10;;;26.00;65.50;;;24.78;49.78;98155.22;5059345;28;21246;-72
2022/08/02 09:32:17;;;;;;;6.27;5.77;;;25.60;65.60;;;24.65;50.00;98161.56;5058816;28;20455;-71
2022/08/02 09:34:48;;;;;;;7.00;6.27;;;25.40;65.70;;;24.52;50.39;98161.22;5061637;28;21007;-76
2022/08/02 09:37:26;;;;;;;6.93;6.33;;;25.30;65.90;;;24.60;50.39;98162.47;5066880;28;20456;-77
2022/08/02 09:39:59;;;;;;;5.63;5.20;;;25.20;65.90;;;24.48;49.39;98165.72;5069018;28;20499;-77
2022/08/02 09:42:28;;;;;;;6.30;4.60;;;25.10;65.20;;;24.48;48.95;98149.13;5065926;28;20612;-77
2022/08/02 09:44:56;;;;;;;5.07;4.67;;;25.20;64.80;;;24.75;47.97;98150.31;5069162;28;20836;-77
2022/08/02 09:47:24;;;;;;;5.10;4.70;;;25.40;63.90;;;24.87;47.47;98150.66;5064148;28;20461;-76
2022/08/02 09:49:54;;;;;;;5.37;4.87;;;25.50;63.70;;;24.86;48.29;98143.47;5067601;28;20459;-77
2022/08/02 09:52:28;;;;;;;4.50;4.20;;;25.40;63.90;;;24.95;47.14;98142.78;5071520;28;20534;-76
2022/08/02 09:55:04;;;;;;;5.80;4.70;;;25.60;63.40;;;25.17;47.38;98142.00;5062002;28;20547;-75
2022/08/02 09:57:36;;;;;;;4.23;3.83;;;25.80;63.50;;;25.16;45.88;98135.69;5062171;28;21117;-75
2022/08/02 10:00:09;;;;;;;4.00;3.73;;;25.70;61.90;;;25.29;44.30;98133.22;5055900;28;20454;-74
2022/08/02 10:02:36;;;;;;;3.73;3.43;;;25.90;60.40;;;25.38;43.51;98119.47;5092994;28;20510;-75
2022/08/02 10:05:04;;;;;;;4.40;4.10;;;26.00;59.70;;;25.69;43.62;98127.88;5064070;28;20448;-74
2022/08/02 10:07:32;;;;;;;3.37;3.17;;;26.20;59.60;;;25.87;42.33;98125.28;5063652;28;20449;-75
2022/08/02 10:10:01;;;;;;;4.30;3.90;;;26.40;58.60;;;26.03;42.04;98129.31;5066389;28;20466;-76
2022/08/02 10:12:29;;;;;;;4.47;4.07;;;26.50;58.20;;;26.22;41.55;98120.00;5061938;28;20455;-75
2022/08/02 10:14:56;;;;;;;3.67;3.47;;;26.80;58.00;;;26.34;41.28;98115.84;5063644;28;20812;-75
2022/08/02 10:17:25;;;;;;;4.73;3.83;;;26.80;57.50;;;26.37;41.35;98093.84;5054579;28;20464;-75
2022/08/02 10:19:52;;;;;;;4.93;4.40;;;27.00;58.00;;;26.16;42.43;98110.97;5060863;28;21027;-74
2022/08/02 10:22:20;;;;;;;4.37;4.07;;;26.90;58.00;;;25.99;43.18;98103.38;5061330;28;20479;-75
2022/08/02 10:24:49;;;;;;;4.57;4.10;;;26.70;58.40;;;26.27;42.93;98111.53;5062895;28;20460;-76
2022/08/02 10:27:20;;;;;;;4.57;4.20;;;26.90;58.80;;;26.69;42.07;98121.53;5062972;28;20502;-75
2022/08/02 10:29:50;;;;;;;5.00;4.60;;;27.10;58.40;;;27.02;41.04;98118.38;5063690;28;20470;-75